AFR191 VOBL-LFPG
Flight info
| Callsign | AFR191 |
|---|---|
| Flight time | N/A |
| Altitude | 36000 |
| Route | VAGPU8A VAGPU Q8 AGELA G208 BBB/N0498F370 G208 APANO/N0502F360 G451 AAE Z8 VIKIT P628 RK/N0494F380 G202 ZB L750 RANAH B801 NINOP B475 DOLOS B449 MAMED P130 NATSO/N0492F400 P130 REBLO UM11 CRM UL746 ODERO DCT OPT DCT IRLOX DCT BALUX DCT BEGLA DCT LAMSI DCT ASPAT DCT VIBOM DCT BETEX DCT IDOSA DCT TOLVU/N0486F410 DCT RAPOR DCT VEDUS |
| Aircraft | A359/H-SDE2E3GHIJ3J4J5LM1ORWXY/LB1D1 |
Departure
| Time | 2026-05-08 15:30 |
|---|---|
| Airport | Kempegowda International Airport Bengaluru (VOBL) |
Arrival
| Time | N/A |
|---|---|
| Airport | Charles de Gaulle International Airport (LFPG) |
| Time | Latitude | Longitude | Altitude | Speed | Heading |
|---|---|---|---|---|---|
| 2026-05-08 14:34 | 13.20091 | 77.71661 | 3018 ft | 0 kts | 180° |
| 2026-05-08 15:07 | 13.20096 | 77.71661 | 3017 ft | 2 kts | 181° |
| 2026-05-08 15:07 | 13.20113 | 77.71660 | 3019 ft | 2 kts | 178° |
| 2026-05-08 15:08 | 13.20129 | 77.71659 | 3022 ft | 2 kts | 173° |
| 2026-05-08 15:08 | 13.20140 | 77.71658 | 3024 ft | 2 kts | 172° |
| 2026-05-08 15:08 | 13.20162 | 77.71653 | 3025 ft | 2 kts | 159° |
| 2026-05-08 15:08 | 13.20176 | 77.71645 | 3023 ft | 2 kts | 131° |
| 2026-05-08 15:09 | 13.20183 | 77.71630 | 3026 ft | 2 kts | 95° |
| 2026-05-08 15:09 | 13.20183 | 77.71624 | 3026 ft | 0 kts | 92° |
| 2026-05-08 15:18 | 13.20183 | 77.71626 | 3026 ft | 1 kts | 92° |
| 2026-05-08 15:18 | 13.20183 | 77.71628 | 3026 ft | 0 kts | 92° |
| 2026-05-08 15:19 | 13.20183 | 77.71637 | 3025 ft | 4 kts | 92° |
| 2026-05-08 15:19 | 13.20182 | 77.71686 | 3019 ft | 9 kts | 91° |
| 2026-05-08 15:19 | 13.20181 | 77.71759 | 3017 ft | 10 kts | 89° |
| 2026-05-08 15:19 | 13.20204 | 77.71779 | 3017 ft | 3 kts | 22° |
| 2026-05-08 15:20 | 13.20224 | 77.71787 | 3017 ft | 3 kts | 20° |
| 2026-05-08 15:20 | 13.20244 | 77.71788 | 3017 ft | 3 kts | 1° |
| 2026-05-08 15:20 | 13.20265 | 77.71788 | 3017 ft | 3 kts | 1° |
| 2026-05-08 15:20 | 13.20289 | 77.71789 | 3017 ft | 4 kts | 1° |
| 2026-05-08 15:21 | 13.20317 | 77.71789 | 3017 ft | 4 kts | 1° |
| 2026-05-08 15:21 | 13.20351 | 77.71790 | 3017 ft | 6 kts | 1° |
| 2026-05-08 15:21 | 13.20408 | 77.71790 | 3021 ft | 10 kts | 0° |
| 2026-05-08 15:21 | 13.20476 | 77.71791 | 3018 ft | 10 kts | 1° |
| 2026-05-08 15:22 | 13.20520 | 77.71822 | 3018 ft | 7 kts | 69° |
| 2026-05-08 15:22 | 13.20521 | 77.71870 | 3018 ft | 7 kts | 90° |
| 2026-05-08 15:22 | 13.20520 | 77.71917 | 3018 ft | 7 kts | 90° |
| 2026-05-08 15:22 | 13.20520 | 77.71965 | 3018 ft | 7 kts | 90° |
| 2026-05-08 15:23 | 13.20519 | 77.72012 | 3018 ft | 7 kts | 90° |
| 2026-05-08 15:23 | 13.20519 | 77.72059 | 3018 ft | 6 kts | 90° |
| 2026-05-08 15:23 | 13.20519 | 77.72104 | 3018 ft | 6 kts | 90° |
| 2026-05-08 15:23 | 13.20518 | 77.72150 | 3018 ft | 6 kts | 90° |
| 2026-05-08 15:24 | 13.20518 | 77.72196 | 3018 ft | 6 kts | 90° |
| 2026-05-08 15:24 | 13.20517 | 77.72243 | 3018 ft | 7 kts | 90° |
| 2026-05-08 15:24 | 13.20534 | 77.72275 | 3023 ft | 4 kts | 36° |
| 2026-05-08 15:24 | 13.20561 | 77.72282 | 3017 ft | 1 kts | 7° |
| 2026-05-08 15:27 | 13.20568 | 77.72283 | 3018 ft | 4 kts | 7° |
| 2026-05-08 15:27 | 13.20624 | 77.72286 | 3018 ft | 10 kts | 2° |
| 2026-05-08 15:28 | 13.20679 | 77.72264 | 3017 ft | 8 kts | 305° |
| 2026-05-08 15:28 | 13.20689 | 77.72208 | 3018 ft | 7 kts | 274° |
| 2026-05-08 15:28 | 13.20689 | 77.72204 | 3018 ft | 0 kts | 273° |
| 2026-05-08 15:28 | 13.20689 | 77.72189 | 3018 ft | 0 kts | 270° |
| 2026-05-08 15:29 | 13.20689 | 77.72182 | 3018 ft | 8 kts | 270° |
| 2026-05-08 15:29 | 13.20692 | 77.71886 | 3017 ft | 76 kts | 270° |
| 2026-05-08 15:30 | 13.20697 | 77.71118 | 3018 ft | 138 kts | 271° |
| 2026-05-08 15:30 | 13.20704 | 77.69960 | 3018 ft | 190 kts | 269° |
| 2026-05-08 15:30 | 13.20694 | 77.68594 | 3713 ft | 185 kts | 268° |
| 2026-05-08 15:30 | 13.20685 | 77.67310 | 4432 ft | 185 kts | 269° |
| 2026-05-08 15:31 | 13.20814 | 77.65911 | 4559 ft | 204 kts | 280° |
| 2026-05-08 15:31 | 13.21165 | 77.64544 | 5036 ft | 190 kts | 292° |
| 2026-05-08 15:31 | 13.22012 | 77.63540 | 5192 ft | 190 kts | 335° |
| 2026-05-08 15:31 | 13.23298 | 77.63290 | 5291 ft | 192 kts | 14° |
| 2026-05-08 15:32 | 13.24455 | 77.63907 | 5428 ft | 193 kts | 50° |
| 2026-05-08 15:32 | 13.25076 | 77.65120 | 5609 ft | 201 kts | 74° |
| 2026-05-08 15:32 | 13.25406 | 77.66554 | 5769 ft | 215 kts | 78° |
| 2026-05-08 15:32 | 13.25698 | 77.68120 | 5944 ft | 229 kts | 79° |
| 2026-05-08 15:33 | 13.25869 | 77.69790 | 6177 ft | 242 kts | 86° |
| 2026-05-08 15:33 | 13.25921 | 77.71555 | 6430 ft | 253 kts | 88° |
| 2026-05-08 15:33 | 13.25946 | 77.73385 | 6729 ft | 262 kts | 88° |
| 2026-05-08 15:33 | 13.25969 | 77.75281 | 7077 ft | 268 kts | 88° |
| 2026-05-08 15:34 | 13.25989 | 77.77187 | 7529 ft | 270 kts | 88° |
| 2026-05-08 15:34 | 13.26015 | 77.79137 | 7942 ft | 274 kts | 88° |
| 2026-05-08 15:34 | 13.26333 | 77.81042 | 8309 ft | 278 kts | 68° |
| 2026-05-08 15:34 | 13.27455 | 77.82631 | 8781 ft | 279 kts | 37° |
| 2026-05-08 15:35 | 13.29230 | 77.83410 | 9203 ft | 283 kts | 9° |
| 2026-05-08 15:35 | 13.31200 | 77.83502 | 9680 ft | 286 kts | 358° |
| 2026-05-08 15:35 | 13.33149 | 77.83045 | 10123 ft | 290 kts | 337° |
| 2026-05-08 15:35 | 13.34965 | 77.82053 | 10353 ft | 302 kts | 331° |
| 2026-05-08 15:36 | 13.36800 | 77.80945 | 10580 ft | 312 kts | 331° |
| 2026-05-08 15:36 | 13.38062 | 77.80193 | 10732 ft | 319 kts | 332° |
| 2026-05-08 15:36 | 13.40690 | 77.78644 | 10991 ft | 333 kts | 332° |
| 2026-05-08 15:36 | 13.42697 | 77.77469 | 11181 ft | 343 kts | 332° |
| 2026-05-08 15:37 | 13.44810 | 77.76240 | 11361 ft | 353 kts | 332° |
| 2026-05-08 15:37 | 13.46968 | 77.74977 | 11543 ft | 362 kts | 332° |
| 2026-05-08 15:37 | 13.48336 | 77.74177 | 11656 ft | 367 kts | 332° |
| 2026-05-08 15:37 | 13.50574 | 77.72867 | 11856 ft | 374 kts | 332° |
| 2026-05-08 15:38 | 13.52865 | 77.71529 | 12073 ft | 380 kts | 332° |
| 2026-05-08 15:38 | 13.55179 | 77.70185 | 12367 ft | 384 kts | 332° |
| 2026-05-08 15:38 | 13.57509 | 77.68825 | 12678 ft | 386 kts | 332° |
| 2026-05-08 15:38 | 13.59820 | 77.67472 | 12976 ft | 389 kts | 332° |
| 2026-05-08 15:39 | 13.62205 | 77.66076 | 13316 ft | 391 kts | 332° |
| 2026-05-08 15:39 | 13.64541 | 77.64709 | 13628 ft | 393 kts | 332° |
| 2026-05-08 15:39 | 13.66921 | 77.63316 | 13939 ft | 394 kts | 332° |
| 2026-05-08 15:39 | 13.69317 | 77.61913 | 14219 ft | 396 kts | 332° |
| 2026-05-08 15:40 | 13.71715 | 77.60510 | 14491 ft | 398 kts | 332° |
| 2026-05-08 15:40 | 13.74125 | 77.59100 | 14775 ft | 400 kts | 332° |
| 2026-05-08 15:40 | 13.76557 | 77.57679 | 15058 ft | 402 kts | 332° |
| 2026-05-08 15:40 | 13.78992 | 77.56254 | 15353 ft | 404 kts | 332° |
| 2026-05-08 15:41 | 13.81447 | 77.54816 | 15642 ft | 406 kts | 332° |
| 2026-05-08 15:41 | 13.83898 | 77.53382 | 15916 ft | 408 kts | 331° |
| 2026-05-08 15:41 | 13.86375 | 77.51931 | 16183 ft | 410 kts | 331° |
| 2026-05-08 15:41 | 13.88834 | 77.50489 | 16484 ft | 412 kts | 331° |
| 2026-05-08 15:42 | 13.91320 | 77.49033 | 16756 ft | 414 kts | 331° |
| 2026-05-08 15:42 | 13.93832 | 77.47561 | 17028 ft | 416 kts | 331° |
| 2026-05-08 15:42 | 13.96362 | 77.46078 | 17299 ft | 418 kts | 331° |
| 2026-05-08 15:42 | 13.98890 | 77.44596 | 17590 ft | 420 kts | 331° |
| 2026-05-08 15:43 | 14.01433 | 77.43105 | 17854 ft | 422 kts | 331° |
| 2026-05-08 15:43 | 14.03982 | 77.41610 | 18142 ft | 424 kts | 330° |
| 2026-05-08 15:43 | 14.06556 | 77.40097 | 18372 ft | 425 kts | 330° |
| 2026-05-08 15:43 | 14.09139 | 77.38581 | 18604 ft | 427 kts | 330° |
| 2026-05-08 15:44 | 14.11722 | 77.37065 | 18851 ft | 428 kts | 330° |
| 2026-05-08 15:44 | 14.14308 | 77.35546 | 19084 ft | 429 kts | 331° |
| 2026-05-08 15:44 | 14.16865 | 77.34043 | 19302 ft | 431 kts | 330° |
| 2026-05-08 15:44 | 14.19472 | 77.32510 | 19535 ft | 432 kts | 331° |
| 2026-05-08 15:45 | 14.22092 | 77.30971 | 19765 ft | 434 kts | 331° |
| 2026-05-08 15:45 | 14.24713 | 77.29430 | 19977 ft | 435 kts | 331° |
| 2026-05-08 15:45 | 14.27351 | 77.27879 | 20195 ft | 437 kts | 331° |
| 2026-05-08 15:45 | 14.29990 | 77.26328 | 20428 ft | 438 kts | 331° |
| 2026-05-08 15:46 | 14.32639 | 77.24770 | 20665 ft | 439 kts | 331° |
| 2026-05-08 15:46 | 14.35292 | 77.23208 | 20859 ft | 440 kts | 331° |
| 2026-05-08 15:46 | 14.37962 | 77.21635 | 21075 ft | 442 kts | 331° |
| 2026-05-08 15:46 | 14.40595 | 77.20085 | 21281 ft | 443 kts | 331° |
| 2026-05-08 15:47 | 14.43263 | 77.18514 | 21491 ft | 444 kts | 331° |
| 2026-05-08 15:47 | 14.45959 | 77.16925 | 21690 ft | 445 kts | 331° |
| 2026-05-08 15:47 | 14.48657 | 77.15335 | 21893 ft | 447 kts | 331° |
| 2026-05-08 15:47 | 14.51359 | 77.13742 | 22086 ft | 448 kts | 331° |
| 2026-05-08 15:48 | 14.56785 | 77.10542 | 22478 ft | 450 kts | 331° |
| 2026-05-08 15:48 | 14.59555 | 77.09044 | 22695 ft | 451 kts | 337° |
| 2026-05-08 15:48 | 14.62485 | 77.07870 | 22898 ft | 451 kts | 341° |
| 2026-05-08 15:49 | 14.65402 | 77.06814 | 23100 ft | 451 kts | 341° |
| 2026-05-08 15:49 | 14.68361 | 77.05741 | 23284 ft | 452 kts | 341° |
| 2026-05-08 15:49 | 14.71344 | 77.04656 | 23483 ft | 454 kts | 341° |
| 2026-05-08 15:49 | 14.74323 | 77.03570 | 23620 ft | 455 kts | 341° |
| 2026-05-08 15:50 | 14.77315 | 77.02478 | 23758 ft | 456 kts | 341° |
| 2026-05-08 15:50 | 14.80307 | 77.01385 | 23893 ft | 457 kts | 341° |
| 2026-05-08 15:50 | 14.83311 | 77.00287 | 24042 ft | 459 kts | 341° |
| 2026-05-08 15:50 | 14.86324 | 76.99185 | 24185 ft | 460 kts | 341° |
| 2026-05-08 15:51 | 14.89348 | 76.98079 | 24320 ft | 461 kts | 341° |
| 2026-05-08 15:51 | 14.92383 | 76.96968 | 24449 ft | 462 kts | 341° |
| 2026-05-08 15:51 | 14.95379 | 76.95872 | 24594 ft | 463 kts | 341° |
| 2026-05-08 15:51 | 14.98417 | 76.94760 | 24722 ft | 465 kts | 341° |
| 2026-05-08 15:52 | 15.01470 | 76.93642 | 24852 ft | 466 kts | 341° |
| 2026-05-08 15:52 | 15.04531 | 76.92521 | 24984 ft | 467 kts | 341° |
| 2026-05-08 15:52 | 15.07590 | 76.91399 | 25111 ft | 468 kts | 341° |
| 2026-05-08 15:52 | 15.10673 | 76.90269 | 25243 ft | 469 kts | 341° |
| 2026-05-08 15:53 | 15.13752 | 76.89140 | 25371 ft | 470 kts | 340° |
| 2026-05-08 15:53 | 15.16837 | 76.88009 | 25507 ft | 472 kts | 340° |
| 2026-05-08 15:53 | 15.19895 | 76.86887 | 25627 ft | 473 kts | 340° |
| 2026-05-08 15:53 | 15.23003 | 76.85746 | 25759 ft | 474 kts | 340° |
| 2026-05-08 15:54 | 15.26107 | 76.84606 | 25899 ft | 475 kts | 340° |
| 2026-05-08 15:54 | 15.29230 | 76.83459 | 26014 ft | 476 kts | 340° |
| 2026-05-08 15:54 | 15.32354 | 76.82312 | 26141 ft | 478 kts | 340° |
| 2026-05-08 15:54 | 15.35495 | 76.81158 | 26258 ft | 479 kts | 340° |
| 2026-05-08 15:55 | 15.38641 | 76.80001 | 26381 ft | 480 kts | 340° |
| 2026-05-08 15:55 | 15.44947 | 76.77682 | 26627 ft | 483 kts | 340° |
| 2026-05-08 15:55 | 15.48079 | 76.76529 | 26742 ft | 484 kts | 340° |
| 2026-05-08 15:56 | 15.51249 | 76.75363 | 26880 ft | 485 kts | 340° |
| 2026-05-08 15:56 | 15.54428 | 76.74193 | 26999 ft | 486 kts | 340° |
| 2026-05-08 15:56 | 15.57610 | 76.73020 | 27122 ft | 487 kts | 340° |
| 2026-05-08 15:56 | 15.60801 | 76.71845 | 27252 ft | 488 kts | 340° |
| 2026-05-08 15:57 | 15.64008 | 76.70663 | 27376 ft | 489 kts | 340° |
| 2026-05-08 15:57 | 15.67209 | 76.69458 | 27487 ft | 490 kts | 338° |
| 2026-05-08 15:57 | 15.70293 | 76.67935 | 27593 ft | 491 kts | 329° |
| 2026-05-08 15:57 | 15.73174 | 76.66049 | 27723 ft | 491 kts | 326° |
| 2026-05-08 15:58 | 15.76019 | 76.64051 | 27834 ft | 492 kts | 325° |
| 2026-05-08 15:58 | 15.78790 | 76.62051 | 27944 ft | 493 kts | 324° |
| 2026-05-08 15:58 | 15.81605 | 76.60005 | 28066 ft | 494 kts | 324° |
| 2026-05-08 15:58 | 15.84422 | 76.57960 | 28184 ft | 495 kts | 324° |
| 2026-05-08 15:59 | 15.87256 | 76.55912 | 28287 ft | 496 kts | 324° |
| 2026-05-08 15:59 | 15.90099 | 76.53868 | 28387 ft | 497 kts | 324° |
| 2026-05-08 15:59 | 15.92940 | 76.51831 | 28510 ft | 498 kts | 324° |
| 2026-05-08 15:59 | 15.95793 | 76.49790 | 28624 ft | 499 kts | 324° |
| 2026-05-08 16:00 | 16.01516 | 76.45695 | 28815 ft | 500 kts | 324° |
| 2026-05-08 16:00 | 16.07217 | 76.41612 | 29034 ft | 501 kts | 324° |
| 2026-05-08 16:01 | 16.10089 | 76.39554 | 29137 ft | 502 kts | 324° |
| 2026-05-08 16:01 | 16.12960 | 76.37495 | 29227 ft | 503 kts | 324° |
| 2026-05-08 16:01 | 16.15853 | 76.35419 | 29345 ft | 503 kts | 324° |
| 2026-05-08 16:01 | 16.18736 | 76.33350 | 29433 ft | 504 kts | 324° |
| 2026-05-08 16:02 | 16.23539 | 76.29902 | 29605 ft | 505 kts | 324° |
| 2026-05-08 16:02 | 16.26431 | 76.27824 | 29707 ft | 506 kts | 324° |
| 2026-05-08 16:02 | 16.30265 | 76.25069 | 29857 ft | 506 kts | 324° |
| 2026-05-08 16:03 | 16.33168 | 76.22983 | 30007 ft | 506 kts | 324° |
| 2026-05-08 16:03 | 16.35124 | 76.21576 | 30107 ft | 505 kts | 324° |
| 2026-05-08 16:03 | 16.38950 | 76.18824 | 30291 ft | 504 kts | 324° |
| 2026-05-08 16:03 | 16.40856 | 76.17453 | 30388 ft | 504 kts | 324° |
| 2026-05-08 16:04 | 16.43747 | 76.15372 | 30532 ft | 504 kts | 324° |
| 2026-05-08 16:04 | 16.46622 | 76.13301 | 30685 ft | 503 kts | 324° |
| 2026-05-08 16:04 | 16.49507 | 76.11222 | 30797 ft | 504 kts | 324° |
| 2026-05-08 16:04 | 16.52380 | 76.09152 | 30942 ft | 503 kts | 324° |
| 2026-05-08 16:05 | 16.56193 | 76.06403 | 31156 ft | 503 kts | 324° |
| 2026-05-08 16:05 | 16.58135 | 76.05002 | 31247 ft | 503 kts | 324° |
| 2026-05-08 16:05 | 16.61012 | 76.02926 | 31412 ft | 503 kts | 324° |
| 2026-05-08 16:05 | 16.63856 | 76.00873 | 31558 ft | 502 kts | 324° |
| 2026-05-08 16:06 | 16.66722 | 75.98804 | 31716 ft | 502 kts | 324° |
| 2026-05-08 16:06 | 16.69592 | 75.96731 | 31861 ft | 502 kts | 324° |
| 2026-05-08 16:06 | 16.72454 | 75.94663 | 32035 ft | 501 kts | 324° |
| 2026-05-08 16:06 | 16.75316 | 75.92594 | 32198 ft | 500 kts | 324° |
| 2026-05-08 16:07 | 16.78181 | 75.90523 | 32360 ft | 500 kts | 324° |
| 2026-05-08 16:07 | 16.81039 | 75.88455 | 32521 ft | 500 kts | 324° |
| 2026-05-08 16:07 | 16.83895 | 75.86388 | 32694 ft | 499 kts | 324° |
| 2026-05-08 16:07 | 16.86748 | 75.84322 | 32857 ft | 499 kts | 324° |
| 2026-05-08 16:08 | 16.89596 | 75.82260 | 33033 ft | 498 kts | 324° |
| 2026-05-08 16:08 | 16.92441 | 75.80199 | 33198 ft | 498 kts | 324° |
| 2026-05-08 16:08 | 16.95245 | 75.78166 | 33361 ft | 497 kts | 324° |
| 2026-05-08 16:08 | 16.98086 | 75.76107 | 33526 ft | 497 kts | 324° |
| 2026-05-08 16:09 | 17.00918 | 75.74053 | 33722 ft | 496 kts | 324° |
| 2026-05-08 16:09 | 17.03759 | 75.71991 | 33883 ft | 496 kts | 324° |
| 2026-05-08 16:09 | 17.06591 | 75.69936 | 34044 ft | 495 kts | 323° |
| 2026-05-08 16:09 | 17.09419 | 75.67883 | 34217 ft | 495 kts | 324° |
| 2026-05-08 16:10 | 17.12240 | 75.65834 | 34400 ft | 494 kts | 323° |
| 2026-05-08 16:10 | 17.15061 | 75.63784 | 34572 ft | 493 kts | 323° |
| 2026-05-08 16:10 | 17.17871 | 75.61742 | 34746 ft | 492 kts | 323° |
| 2026-05-08 16:10 | 17.20687 | 75.59694 | 34924 ft | 492 kts | 323° |
| 2026-05-08 16:11 | 17.23486 | 75.57657 | 35098 ft | 491 kts | 323° |
| 2026-05-08 16:11 | 17.26254 | 75.55643 | 35254 ft | 491 kts | 323° |
| 2026-05-08 16:11 | 17.29056 | 75.53603 | 35425 ft | 490 kts | 323° |
| 2026-05-08 16:11 | 17.31846 | 75.51571 | 35602 ft | 489 kts | 323° |
| 2026-05-08 16:12 | 17.34642 | 75.49534 | 35762 ft | 489 kts | 323° |
| 2026-05-08 16:12 | 17.37433 | 75.47500 | 35887 ft | 490 kts | 323° |
| 2026-05-08 16:12 | 17.43057 | 75.43397 | 35896 ft | 495 kts | 323° |
| 2026-05-08 16:13 | 17.48703 | 75.39277 | 35895 ft | 494 kts | 323° |
| 2026-05-08 16:13 | 17.54296 | 75.35193 | 35896 ft | 493 kts | 323° |
| 2026-05-08 16:14 | 17.59922 | 75.31080 | 35897 ft | 493 kts | 323° |
| 2026-05-08 16:14 | 17.65547 | 75.26965 | 35895 ft | 493 kts | 323° |
| 2026-05-08 16:15 | 17.71165 | 75.22852 | 35898 ft | 492 kts | 323° |
| 2026-05-08 16:15 | 17.76776 | 75.18742 | 35897 ft | 492 kts | 323° |
| 2026-05-08 16:16 | 17.82349 | 75.14655 | 35896 ft | 492 kts | 323° |
| 2026-05-08 16:16 | 17.87957 | 75.10541 | 35899 ft | 491 kts | 323° |
| 2026-05-08 16:17 | 17.93548 | 75.06435 | 35897 ft | 491 kts | 323° |
| 2026-05-08 16:17 | 17.99147 | 75.02319 | 35894 ft | 491 kts | 323° |
| 2026-05-08 16:18 | 18.04697 | 74.98237 | 35896 ft | 491 kts | 323° |
| 2026-05-08 16:18 | 18.10295 | 74.94116 | 35897 ft | 491 kts | 323° |
| 2026-05-08 16:19 | 18.15886 | 74.89998 | 35898 ft | 491 kts | 323° |
| 2026-05-08 16:19 | 18.21477 | 74.85875 | 35899 ft | 491 kts | 323° |
| 2026-05-08 16:20 | 18.27026 | 74.81781 | 35904 ft | 491 kts | 323° |
| 2026-05-08 16:20 | 18.32613 | 74.77655 | 35904 ft | 490 kts | 323° |
| 2026-05-08 16:21 | 18.38200 | 74.73526 | 35908 ft | 490 kts | 323° |
| 2026-05-08 16:21 | 18.43781 | 74.69398 | 35907 ft | 490 kts | 323° |
| 2026-05-08 16:22 | 18.49348 | 74.65278 | 35916 ft | 490 kts | 323° |
| 2026-05-08 16:22 | 18.54881 | 74.61178 | 35900 ft | 490 kts | 323° |
| 2026-05-08 16:23 | 18.60461 | 74.57041 | 35919 ft | 489 kts | 323° |
| 2026-05-08 16:23 | 18.66028 | 74.52910 | 35925 ft | 489 kts | 323° |
| 2026-05-08 16:24 | 18.71588 | 74.48780 | 35909 ft | 488 kts | 323° |
| 2026-05-08 16:24 | 18.77095 | 74.44688 | 35919 ft | 488 kts | 323° |
| 2026-05-08 16:25 | 18.82644 | 74.40560 | 35922 ft | 488 kts | 323° |
| 2026-05-08 16:25 | 18.88193 | 74.36429 | 35929 ft | 487 kts | 323° |
| 2026-05-08 16:26 | 18.93724 | 74.32307 | 35927 ft | 487 kts | 323° |
| 2026-05-08 16:26 | 18.99260 | 74.28179 | 35932 ft | 487 kts | 323° |
| 2026-05-08 16:27 | 19.04748 | 74.24083 | 35924 ft | 486 kts | 323° |
| 2026-05-08 16:27 | 19.10271 | 74.19958 | 35931 ft | 486 kts | 323° |
| 2026-05-08 16:28 | 19.15792 | 74.15830 | 35926 ft | 486 kts | 323° |
| 2026-05-08 16:28 | 19.21278 | 74.11726 | 35926 ft | 486 kts | 323° |
| 2026-05-08 16:29 | 19.26796 | 74.07594 | 35929 ft | 486 kts | 323° |
| 2026-05-08 16:29 | 19.32302 | 74.03467 | 35931 ft | 486 kts | 323° |
| 2026-05-08 16:30 | 19.37815 | 73.99332 | 35932 ft | 486 kts | 323° |
| 2026-05-08 16:30 | 19.43328 | 73.95193 | 35935 ft | 485 kts | 323° |
| 2026-05-08 16:31 | 19.48838 | 73.91053 | 35930 ft | 485 kts | 323° |
| 2026-05-08 16:31 | 19.54343 | 73.86913 | 35928 ft | 485 kts | 323° |
| 2026-05-08 16:32 | 19.59804 | 73.82803 | 35923 ft | 485 kts | 323° |
| 2026-05-08 16:32 | 19.65305 | 73.78660 | 35922 ft | 485 kts | 323° |
| 2026-05-08 16:33 | 19.70791 | 73.74524 | 35922 ft | 484 kts | 323° |
| 2026-05-08 16:33 | 19.76285 | 73.70378 | 35923 ft | 484 kts | 323° |
| 2026-05-08 16:34 | 19.81778 | 73.66230 | 35916 ft | 484 kts | 323° |
| 2026-05-08 16:34 | 19.87257 | 73.62088 | 35913 ft | 484 kts | 323° |
| 2026-05-08 16:35 | 19.92700 | 73.57970 | 35906 ft | 483 kts | 323° |
| 2026-05-08 16:35 | 19.98175 | 73.53825 | 35909 ft | 483 kts | 323° |
| 2026-05-08 16:36 | 20.03654 | 73.49673 | 35906 ft | 483 kts | 323° |
| 2026-05-08 16:36 | 20.09124 | 73.45524 | 35903 ft | 483 kts | 323° |
| 2026-05-08 16:37 | 20.14560 | 73.41397 | 35901 ft | 483 kts | 323° |
| 2026-05-08 16:37 | 20.20013 | 73.37253 | 35899 ft | 482 kts | 323° |
| 2026-05-08 16:38 | 20.25476 | 73.33098 | 35891 ft | 482 kts | 323° |
| 2026-05-08 16:38 | 20.30931 | 73.28947 | 35881 ft | 482 kts | 323° |
| 2026-05-08 16:39 | 20.36385 | 73.24791 | 35875 ft | 482 kts | 323° |
| 2026-05-08 16:39 | 20.41829 | 73.20640 | 35868 ft | 481 kts | 323° |
| 2026-05-08 16:40 | 20.47233 | 73.16516 | 35863 ft | 481 kts | 323° |
| 2026-05-08 16:40 | 20.52674 | 73.12360 | 35854 ft | 481 kts | 323° |
| 2026-05-08 16:41 | 20.58106 | 73.08207 | 35853 ft | 480 kts | 323° |
| 2026-05-08 16:42 | 20.66234 | 73.01986 | 35839 ft | 480 kts | 323° |
| 2026-05-08 16:42 | 20.71735 | 72.97952 | 35838 ft | 481 kts | 329° |
| 2026-05-08 16:43 | 20.77979 | 72.95362 | 35830 ft | 485 kts | 346° |
| 2026-05-08 16:43 | 20.84735 | 72.94884 | 35827 ft | 490 kts | 358° |
| 2026-05-08 16:44 | 20.91508 | 72.95124 | 35820 ft | 491 kts | 359° |
| 2026-05-08 16:44 | 20.98336 | 72.95433 | 35813 ft | 491 kts | 359° |
| 2026-05-08 16:45 | 21.05154 | 72.95710 | 35811 ft | 491 kts | 359° |
| 2026-05-08 16:45 | 21.11985 | 72.95964 | 35811 ft | 490 kts | 359° |
| 2026-05-08 16:46 | 21.18805 | 72.96211 | 35809 ft | 491 kts | 359° |
| 2026-05-08 16:46 | 21.25582 | 72.96529 | 35810 ft | 491 kts | 359° |
| 2026-05-08 16:47 | 21.32153 | 72.96892 | 35808 ft | 491 kts | 359° |